Time;durP1;ratioP1;P1;durP2;ratioP2;P2;SDS_P1;SDS_P2;PMS_P1;PMS_P2;Temp;Humidity;BMP_temperature;BMP_pressure;BME280_temperature;BME280_humidity;BME280_pressure;Samples;Min_cycle;Max_cycle;Signal;HPM_P1;HPM_P2
2021/01/17 00:00:58;;;;;;;13.88;3.42;;;;;;;4.54;80.63;101570.97;4970151;28;20146;-49
2021/01/17 00:03:25;;;;;;;13.23;3.22;;;;;;;4.51;80.97;101566.03;4969857;28;20047;-50
2021/01/17 00:05:53;;;;;;;7.90;2.92;;;;;;;4.50;80.92;101566.34;4972749;28;20035;-48
2021/01/17 00:08:19;;;;;;;13.63;4.68;;;;;;;4.47;80.91;101575.97;4971284;28;20138;-52
2021/01/17 00:10:46;;;;;;;13.68;2.80;;;;;;;4.42;80.93;101566.94;4967259;28;20150;-53
2021/01/17 00:13:13;;;;;;;14.38;3.22;;;;;;;4.38;81.35;101571.34;4970141;28;20102;-54
2021/01/17 00:15:39;;;;;;;10.25;2.83;;;;;;;4.39;81.35;101567.50;4972119;28;20039;-51
2021/01/17 00:18:07;;;;;;;18.00;5.00;;;;;;;4.37;81.05;101575.19;4973271;28;20088;-51
2021/01/17 00:20:34;;;;;;;11.77;3.30;;;;;;;4.32;81.68;101576.84;4971344;28;20102;-52
2021/01/17 00:23:02;;;;;;;13.27;4.68;;;;;;;4.30;81.81;101587.28;4972358;28;20068;-49
2021/01/17 00:25:29;;;;;;;10.32;2.60;;;;;;;4.30;81.63;101572.75;4973573;28;20047;-49
2021/01/17 00:28:00;;;;;;;7.85;3.08;;;;;;;4.26;81.34;101586.19;4973657;28;20051;-48
2021/01/17 00:30:31;;;;;;;19.00;3.13;;;;;;;4.24;81.59;101582.09;4973070;28;20125;-48
2021/01/17 00:32:59;;;;;;;8.68;4.13;;;;;;;4.24;81.52;101579.38;4973788;28;20055;-50
2021/01/17 00:35:27;;;;;;;10.95;3.70;;;;;;;4.21;81.52;101578.00;4973198;28;20122;-49
2021/01/17 00:37:55;;;;;;;7.88;2.85;;;;;;;4.20;81.55;101581.03;4973480;28;20089;-53
2021/01/17 00:40:22;;;;;;;12.65;3.90;;;;;;;4.15;81.78;101595.59;4973285;28;20094;-54
2021/01/17 00:42:50;;;;;;;12.43;3.00;;;;;;;4.16;81.60;101599.97;4973594;28;20042;-53
2021/01/17 00:45:18;;;;;;;11.88;2.88;;;;;;;4.16;81.09;101591.75;4973937;28;20047;-51
2021/01/17 00:47:45;;;;;;;7.35;1.98;;;;;;;4.14;81.29;101599.44;4971775;28;20047;-48
2021/01/17 00:50:14;;;;;;;12.18;2.33;;;;;;;4.09;81.26;101599.47;4955245;28;20042;-51
2021/01/17 00:52:40;;;;;;;10.95;2.08;;;;;;;4.05;81.83;101603.84;4972571;28;20043;-50
2021/01/17 00:55:08;;;;;;;7.93;2.55;;;;;;;4.04;81.44;101599.50;4973295;28;20113;-51
2021/01/17 00:57:35;;;;;;;4.43;1.67;;;;;;;4.03;81.19;101602.50;4973036;28;20042;-48
2021/01/17 01:00:05;;;;;;;8.15;1.67;;;;;;;4.02;81.24;101607.19;4975774;28;20156;-52
2021/01/17 01:02:31;;;;;;;8.73;1.40;;;;;;;4.01;81.43;101611.00;4972793;28;20043;-49
2021/01/17 01:04:57;;;;;;;6.93;1.63;;;;;;;4.01;81.00;101616.47;4973284;28;20046;-49
2021/01/17 01:07:26;;;;;;;3.72;1.05;;;;;;;4.01;81.33;101623.88;4970945;28;20066;-50
2021/01/17 01:09:52;;;;;;;9.25;1.85;;;;;;;4.01;81.07;101618.41;4972299;28;20457;-52
2021/01/17 01:12:18;;;;;;;8.32;1.50;;;;;;;3.98;80.96;101614.31;4972453;28;20437;-52
2021/01/17 01:14:45;;;;;;;4.65;1.38;;;;;;;3.96;80.78;101613.75;4972092;28;20397;-49
2021/01/17 01:17:11;;;;;;;7.00;2.35;;;;;;;3.95;81.01;101623.06;4971914;28;20070;-51
2021/01/17 01:19:38;;;;;;;8.07;2.70;;;;;;;3.93;80.90;101614.31;4971733;28;20047;-50
2021/01/17 01:22:04;;;;;;;5.03;1.42;;;;;;;3.93;80.86;101616.25;4972079;28;20046;-50
2021/01/17 01:24:32;;;;;;;6.05;2.10;;;;;;;3.90;80.76;101603.91;4969930;28;20042;-52
2021/01/17 01:26:58;;;;;;;5.65;2.15;;;;;;;3.88;80.70;101611.59;4971726;28;20516;-49
2021/01/17 01:29:25;;;;;;;6.47;2.10;;;;;;;3.83;80.88;101617.09;4975066;28;20046;-48
2021/01/17 01:31:52;;;;;;;9.63;2.65;;;;;;;3.83;80.84;101630.81;4954806;28;20105;-52
2021/01/17 01:34:19;;;;;;;5.28;2.33;;;;;;;3.82;80.94;101622.84;4971631;28;20050;-52
2021/01/17 01:36:45;;;;;;;9.13;2.22;;;;;;;3.80;80.67;101642.31;4972402;28;20046;-50
2021/01/17 01:39:12;;;;;;;6.10;2.75;;;;;;;3.77;80.53;101633.81;4971898;28;20042;-54
2021/01/17 01:41:41;;;;;;;9.75;1.83;;;;;;;3.77;80.57;101637.38;4972074;28;20078;-50
2021/01/17 01:44:09;;;;;;;4.40;1.42;;;;;;;3.75;80.44;101645.06;4971866;28;20070;-47
2021/01/17 01:46:41;;;;;;;7.95;1.42;;;;;;;3.74;80.87;101637.09;4938291;28;20501;-49
2021/01/17 01:49:09;;;;;;;6.40;1.48;;;;;;;3.70;80.67;101634.13;4971646;28;20047;-47
2021/01/17 01:51:38;;;;;;;6.47;1.77;;;;;;;3.69;80.55;101635.22;4971420;28;20043;-52
2021/01/17 01:54:06;;;;;;;3.92;1.40;;;;;;;3.66;80.82;101641.25;4970620;28;20050;-49
2021/01/17 01:56:32;;;;;;;7.28;2.15;;;;;;;3.62;80.73;101640.16;4971359;28;20097;-48
2021/01/17 01:59:02;;;;;;;5.57;2.08;;;;;;;3.59;80.63;101641.53;4970138;28;20054;-54
2021/01/17 02:01:28;;;;;;;12.25;3.40;;;;;;;3.59;80.60;101641.53;4957740;28;20434;-48
2021/01/17 02:03:55;;;;;;;9.40;1.90;;;;;;;3.59;80.66;101646.19;4957078;28;20083;-55
2021/01/17 02:06:23;;;;;;;7.50;2.13;;;;;;;3.60;80.81;101653.31;4956614;29;20125;-50
2021/01/17 02:08:55;;;;;;;11.30;2.03;;;;;;;3.57;80.81;101648.41;4956664;29;20079;-50
2021/01/17 02:11:47;;;;;;;8.02;2.13;;;;;;;3.54;80.91;101654.41;4958180;28;20079;-48
2021/01/17 02:14:24;;;;;;;10.13;2.05;;;;;;;3.52;80.63;101651.16;4956561;29;20127;-49
2021/01/17 02:16:53;;;;;;;11.43;4.18;;;;;;;3.50;80.92;101653.31;4956521;29;20107;-50
2021/01/17 02:19:23;;;;;;;9.18;1.90;;;;;;;3.45;80.78;101661.53;4955807;28;20076;-53
2021/01/17 02:22:01;;;;;;;10.52;3.45;;;;;;;3.43;81.10;101663.72;4956289;29;20047;-51
2021/01/17 02:24:33;;;;;;;8.32;1.75;;;;;;;3.40;80.83;101665.09;4946101;29;20078;-48
2021/01/17 02:27:03;;;;;;;8.60;1.70;;;;;;;3.38;81.47;101669.22;4956646;29;20103;-47
2021/01/17 02:29:29;;;;;;;7.20;2.08;;;;;;;3.38;80.97;101674.69;4955998;29;20047;-47
2021/01/17 02:31:59;;;;;;;15.55;3.42;;;;;;;3.37;81.39;101686.72;4938077;29;20051;-47
2021/01/17 02:34:29;;;;;;;8.45;2.08;;;;;;;3.35;80.96;101684.28;4955170;29;20039;-48
2021/01/17 02:37:20;;;;;;;9.48;1.83;;;;;;;3.33;81.26;101680.16;4939362;29;20086;-48
2021/01/17 02:40:02;;;;;;;7.43;1.67;;;;;;;3.35;81.34;101691.66;4955389;29;20114;-48
2021/01/17 02:42:29;;;;;;;5.47;2.00;;;;;;;3.29;81.24;101696.31;4954854;29;20047;-50
2021/01/17 02:44:56;;;;;;;6.60;1.92;;;;;;;3.29;81.50;101695.47;4937944;29;20079;-51
2021/01/17 02:47:22;;;;;;;8.23;1.70;;;;;;;3.26;81.53;101694.09;4956008;29;20047;-50
2021/01/17 02:49:51;;;;;;;6.43;2.42;;;;;;;3.24;81.74;101699.03;4955199;29;20433;-50
2021/01/17 02:52:22;;;;;;;9.85;2.33;;;;;;;3.23;82.02;101700.13;4955491;29;20446;-49
2021/01/17 02:54:49;;;;;;;8.25;1.40;;;;;;;3.23;81.78;101702.88;4951125;28;20476;-47
2021/01/17 02:57:21;;;;;;;8.20;2.47;;;;;;;3.20;82.13;101711.66;4955353;29;20063;-50
2021/01/17 02:59:55;;;;;;;6.07;1.80;;;;;;;3.21;82.18;101716.00;4964318;28;20138;-48
2021/01/17 03:02:28;;;;;;;8.73;2.28;;;;;;;3.20;82.05;101721.75;4973509;28;20457;-47
2021/01/17 03:05:00;;;;;;;12.50;2.78;;;;;;;3.18;82.10;101726.69;4968782;28;20129;-50
2021/01/17 03:07:31;;;;;;;6.82;1.58;;;;;;;3.19;82.10;101739.25;4974785;28;20035;-47
2021/01/17 03:10:00;;;;;;;6.15;1.50;;;;;;;3.19;81.94;101733.78;4977059;28;20042;-47
2021/01/17 03:12:26;;;;;;;6.55;2.05;;;;;;;3.18;82.04;101749.38;4987232;28;20046;-47
2021/01/17 03:14:54;;;;;;;7.82;2.35;;;;;;;3.16;82.17;101745.28;4975126;28;20042;-47
2021/01/17 03:17:20;;;;;;;12.77;2.40;;;;;;;3.13;82.36;101745.81;4974963;28;20051;-48
2021/01/17 03:19:47;;;;;;;10.93;2.15;;;;;;;3.12;82.46;101733.25;4972756;28;20095;-48
2021/01/17 03:22:13;;;;;;;6.38;1.75;;;;;;;3.10;82.26;101735.44;4975250;28;20050;-47
2021/01/17 03:24:40;;;;;;;9.70;2.58;;;;;;;3.12;82.45;101741.44;4973634;28;20085;-48
2021/01/17 03:27:06;;;;;;;8.50;2.67;;;;;;;3.10;82.64;101752.66;4973301;28;20078;-49
2021/01/17 03:29:33;;;;;;;7.57;2.22;;;;;;;3.06;82.48;101755.13;4972590;28;20147;-47
2021/01/17 03:31:59;;;;;;;8.13;2.17;;;;;;;3.06;82.84;101748.81;4974154;28;20046;-47
2021/01/17 03:34:25;;;;;;;12.02;2.33;;;;;;;3.07;82.84;101745.00;4973590;28;20047;-47
2021/01/17 03:36:52;;;;;;;7.22;1.60;;;;;;;3.07;82.61;101756.75;4974782;28;20552;-47
2021/01/17 03:39:20;;;;;;;11.02;1.90;;;;;;;3.08;82.90;101766.59;4973875;28;20391;-47
2021/01/17 03:41:46;;;;;;;7.38;1.63;;;;;;;3.07;82.69;101759.47;4974351;28;20427;-47
2021/01/17 03:44:13;;;;;;;9.60;2.13;;;;;;;3.08;82.97;101763.88;4974371;28;20046;-47
2021/01/17 03:46:40;;;;;;;6.57;2.03;;;;;;;3.06;82.81;101766.06;4973774;28;20097;-48
2021/01/17 03:49:06;;;;;;;8.35;1.83;;;;;;;3.06;82.95;101757.84;4975214;28;20053;-47
2021/01/17 03:51:33;;;;;;;10.27;2.25;;;;;;;3.04;82.98;101765.50;4973863;28;20058;-50
2021/01/17 03:53:59;;;;;;;10.52;2.58;;;;;;;3.05;82.97;101777.25;4974234;28;20496;-50
2021/01/17 03:56:25;;;;;;;6.95;2.20;;;;;;;3.03;82.87;101780.28;4973386;28;20066;-49
2021/01/17 03:58:52;;;;;;;12.48;2.35;;;;;;;3.06;83.25;101784.38;4970760;28;20038;-47
2021/01/17 04:01:18;;;;;;;11.23;3.47;;;;;;;3.14;82.91;101788.50;4981118;28;20077;-49
2021/01/17 04:03:44;;;;;;;9.68;2.08;;;;;;;3.19;83.23;101791.25;4956680;28;20053;-47
2021/01/17 04:06:11;;;;;;;7.13;2.05;;;;;;;3.21;82.90;101797.25;4973663;28;20464;-54
2021/01/17 04:08:37;;;;;;;7.07;1.63;;;;;;;3.23;82.90;101797.84;4974058;28;20412;-47
2021/01/17 04:11:03;;;;;;;5.80;1.77;;;;;;;3.19;82.58;101797.53;4975397;28;20050;-48
2021/01/17 04:13:29;;;;;;;6.63;1.85;;;;;;;3.16;82.75;101797.25;4973485;28;20445;-46
2021/01/17 04:15:56;;;;;;;8.45;2.03;;;;;;;3.13;82.35;101797.78;4974179;28;20098;-49
2021/01/17 04:18:22;;;;;;;6.35;1.85;;;;;;;3.13;82.67;101797.78;4975076;28;20050;-53
2021/01/17 04:20:49;;;;;;;10.68;2.95;;;;;;;3.11;83.02;101797.25;4973696;28;20054;-50
2021/01/17 04:23:15;;;;;;;10.48;2.30;;;;;;;3.06;82.49;101787.94;4972773;28;20149;-48
2021/01/17 04:25:41;;;;;;;10.70;2.25;;;;;;;3.07;82.82;101786.84;4973712;28;20068;-53
2021/01/17 04:28:11;;;;;;;9.32;2.25;;;;;;;3.05;83.06;101782.72;4971787;28;20043;-48
2021/01/17 04:30:38;;;;;;;10.27;1.70;;;;;;;3.04;82.36;101776.44;4972358;28;20050;-50
2021/01/17 04:33:05;;;;;;;9.45;2.45;;;;;;;3.03;82.82;101783.00;4972911;28;20064;-50
2021/01/17 04:35:31;;;;;;;9.52;2.38;;;;;;;3.04;82.63;101784.63;4975798;28;20042;-47
2021/01/17 04:37:59;;;;;;;12.50;3.70;;;;;;;3.00;82.65;101780.81;4985964;28;20137;-50
2021/01/17 04:40:29;;;;;;;7.90;2.22;;;;;;;2.97;83.05;101791.47;4955325;28;20066;-54
2021/01/17 04:43:09;;;;;;;7.63;1.80;;;;;;;2.94;82.80;101784.63;4955455;28;20385;-50
2021/01/17 04:45:37;;;;;;;7.18;2.08;;;;;;;2.94;82.84;101798.28;4970972;28;20081;-50
2021/01/17 04:48:04;;;;;;;12.52;2.10;;;;;;;2.96;82.99;101800.78;4973220;28;20042;-49
2021/01/17 04:50:34;;;;;;;8.80;2.28;;;;;;;2.92;82.82;101803.22;4971827;28;20090;-51
2021/01/17 04:53:05;;;;;;;8.75;2.40;;;;;;;2.92;82.84;101807.84;4979562;28;20404;-48
2021/01/17 04:55:37;;;;;;;8.65;2.53;;;;;;;2.90;82.71;101805.41;4975485;28;20142;-49
2021/01/17 04:58:20;;;;;;;12.88;2.05;;;;;;;2.89;82.75;101809.22;4972613;28;20077;-49
2021/01/17 05:00:57;;;;;;;8.10;1.85;;;;;;;2.87;82.89;101808.69;4974614;28;20082;-47
2021/01/17 05:03:29;;;;;;;8.57;1.70;;;;;;;2.86;82.71;101812.50;4987264;28;20046;-49
2021/01/17 05:06:15;;;;;;;11.55;2.47;;;;;;;2.86;83.04;101819.91;4972843;28;20038;-50
2021/01/17 05:08:45;;;;;;;10.90;1.55;;;;;;;2.85;82.75;101816.34;4956002;28;20043;-48
2021/01/17 05:11:23;;;;;;;7.70;1.77;;;;;;;2.85;82.78;101820.97;4972543;28;20133;-53
2021/01/17 05:14:16;;;;;;;12.68;3.10;;;;;;;2.84;83.29;101819.31;4955131;28;20046;-52
2021/01/17 05:16:44;;;;;;;12.02;2.25;;;;;;;2.85;82.86;101824.53;4971716;28;20469;-53
2021/01/17 05:19:19;;;;;;;7.07;1.58;;;;;;;2.85;83.10;101832.75;4971871;28;20035;-51
2021/01/17 05:21:48;;;;;;;17.85;2.40;;;;;;;2.84;82.70;101833.00;4971446;28;20034;-49
2021/01/17 05:24:16;;;;;;;12.15;2.58;;;;;;;2.85;82.80;101843.69;4954584;28;20062;-48
2021/01/17 05:26:57;;;;;;;8.43;1.85;;;;;;;2.81;82.61;101831.63;4972922;28;20647;-49
2021/01/17 05:29:25;;;;;;;6.90;1.85;;;;;;;2.81;82.89;101847.19;4971875;28;20094;-51
2021/01/17 05:32:14;;;;;;;12.20;2.20;;;;;;;2.74;82.99;101835.69;4971047;28;20070;-49
2021/01/17 05:34:41;;;;;;;13.93;2.03;;;;;;;2.76;82.83;101838.97;4949242;28;20069;-50
2021/01/17 05:37:12;;;;;;;10.77;2.10;;;;;;;2.74;82.89;101833.78;4956347;28;20066;-53
2021/01/17 05:39:57;;;;;;;7.78;2.45;;;;;;;2.70;83.14;101846.31;4971098;28;20066;-53
2021/01/17 05:42:24;;;;;;;7.32;2.10;;;;;;;2.71;82.97;101847.16;4971273;28;20055;-49
2021/01/17 05:44:56;;;;;;;4.40;2.10;;;;;;;2.67;83.12;101852.34;4972624;28;20047;-48
2021/01/17 05:47:24;;;;;;;6.30;1.75;;;;;;;2.68;83.26;101851.25;4971484;28;20074;-52
2021/01/17 05:49:51;;;;;;;9.30;1.95;;;;;;;2.67;83.24;101855.09;4971735;28;20121;-50
2021/01/17 05:52:19;;;;;;;8.15;1.70;;;;;;;2.67;83.03;101851.53;4954503;28;20113;-51
2021/01/17 05:54:49;;;;;;;6.80;1.70;;;;;;;2.65;83.25;101853.69;4972059;28;20078;-54
2021/01/17 05:57:22;;;;;;;14.15;2.17;;;;;;;2.65;83.33;101857.22;4972322;28;20082;-54
2021/01/17 05:59:50;;;;;;;8.88;2.90;;;;;;;2.63;83.10;101858.59;4973284;28;20472;-48
2021/01/17 06:02:24;;;;;;;8.68;1.85;;;;;;;2.62;83.35;101865.16;4972923;28;21406;-53
2021/01/17 06:04:56;;;;;;;9.02;1.90;;;;;;;2.61;83.58;101863.50;4972316;28;20090;-50
2021/01/17 06:07:25;;;;;;;13.70;1.90;;;;;;;2.60;83.60;101879.09;4971970;28;20046;-49
2021/01/17 06:10:01;;;;;;;7.83;2.13;;;;;;;2.60;83.41;101872.78;4972345;28;20050;-48
2021/01/17 06:12:31;;;;;;;21.88;3.53;;;;;;;2.60;83.71;101884.53;4971801;28;20379;-49
2021/01/17 06:15:08;;;;;;;12.35;2.00;;;;;;;2.61;83.48;101872.53;4972232;28;20049;-52
2021/01/17 06:17:39;;;;;;;7.15;1.85;;;;;;;2.61;83.56;101883.47;4954304;28;20125;-49
2021/01/17 06:20:10;;;;;;;13.07;2.33;;;;;;;2.59;83.65;101882.91;4971770;28;20071;-54
2021/01/17 06:22:37;;;;;;;15.63;1.98;;;;;;;2.59;83.33;101876.63;4971900;28;20074;-52
2021/01/17 06:25:05;;;;;;;11.02;1.58;;;;;;;2.58;83.41;101880.44;4972261;28;20118;-51
2021/01/17 06:27:32;;;;;;;8.73;1.83;;;;;;;2.57;83.65;101878.81;4971437;28;20098;-48
2021/01/17 06:29:59;;;;;;;23.67;4.57;;;;;;;2.53;83.97;101894.91;4971497;28;20079;-50
2021/01/17 06:32:30;;;;;;;10.63;2.33;;;;;;;2.54;83.84;101891.09;4954449;28;20051;-51
2021/01/17 06:34:59;;;;;;;11.32;2.03;;;;;;;2.56;83.68;101901.75;4971432;28;20050;-52
2021/01/17 06:37:28;;;;;;;12.55;1.70;;;;;;;2.54;83.42;101896.56;4970733;28;20046;-52
2021/01/17 06:39:57;;;;;;;7.95;2.78;;;;;;;2.55;83.40;101909.13;4971691;28;20058;-49
2021/01/17 06:42:25;;;;;;;12.77;1.60;;;;;;;2.54;83.70;101901.19;4971574;28;20061;-50
2021/01/17 06:44:52;;;;;;;10.48;2.17;;;;;;;2.52;83.74;101904.19;4971602;28;20068;-50
2021/01/17 06:47:23;;;;;;;10.85;2.63;;;;;;;2.51;83.74;101902.56;4974232;28;20094;-48
2021/01/17 06:49:54;;;;;;;12.70;2.20;;;;;;;2.51;83.46;101913.47;4975227;28;20466;-49
2021/01/17 06:52:21;;;;;;;14.90;2.22;;;;;;;2.51;83.51;101909.91;4975889;28;20043;-51
2021/01/17 06:54:52;;;;;;;16.08;2.10;;;;;;;2.49;83.74;101915.63;4974817;28;20456;-49
2021/01/17 06:57:20;;;;;;;11.68;2.80;;;;;;;2.49;83.42;101901.97;4975295;28;20054;-54
2021/01/17 06:59:51;;;;;;;9.18;1.77;;;;;;;2.49;83.66;101909.38;4965336;28;20137;-53
2021/01/17 07:02:26;;;;;;;16.75;2.47;;;;;;;2.45;83.83;101928.19;4955818;29;20102;-48
2021/01/17 07:05:03;;;;;;;15.25;2.20;;;;;;;2.41;83.77;101932.53;4938262;29;20126;-52
2021/01/17 07:07:54;;;;;;;9.35;1.67;;;;;;;2.40;83.73;101928.16;4954423;29;20039;-50
2021/01/17 07:10:22;;;;;;;11.85;1.73;;;;;;;2.40;83.58;101928.16;4939955;29;20067;-48
2021/01/17 07:13:05;;;;;;;8.70;1.92;;;;;;;2.39;83.92;101927.31;4955850;29;20055;-50
2021/01/17 07:15:32;;;;;;;15.02;2.75;;;;;;;2.40;83.48;101928.16;4955014;29;20122;-55
2021/01/17 07:18:07;;;;;;;18.02;2.20;;;;;;;2.37;83.61;101929.50;4954904;28;20085;-52
2021/01/17 07:20:36;;;;;;;12.90;3.58;;;;;;;2.36;83.97;101935.22;4953044;28;20142;-54
2021/01/17 07:23:04;;;;;;;18.27;2.55;;;;;;;2.36;84.00;101943.41;4937824;29;20043;-53
2021/01/17 07:25:32;;;;;;;11.02;1.95;;;;;;;2.37;83.75;101939.59;4953981;28;20470;-53
2021/01/17 07:28:02;;;;;;;6.22;1.65;;;;;;;2.38;84.00;101944.00;4954638;29;20485;-50
2021/01/17 07:30:49;;;;;;;7.75;4.40;;;;;;;2.35;83.88;101952.72;4934078;29;20043;-50
2021/01/17 07:33:36;;;;;;;8.15;2.03;;;;;;;2.36;84.02;101965.28;4952378;28;20051;-49
2021/01/17 07:36:05;;;;;;;8.85;1.85;;;;;;;2.38;83.81;101977.59;4954908;29;20058;-54
2021/01/17 07:38:35;;;;;;;11.77;1.80;;;;;;;2.36;84.04;101978.94;4955262;29;20039;-49
2021/01/17 07:41:09;;;;;;;11.50;2.60;;;;;;;2.34;83.72;101981.13;4954827;29;20442;-49
2021/01/17 07:43:43;;;;;;;17.13;3.13;;;;;;;2.33;83.75;101982.22;4954214;28;20094;-55
2021/01/17 07:46:14;;;;;;;9.68;2.35;;;;;;;2.33;83.71;101982.22;4954443;29;20043;-48
2021/01/17 07:48:43;;;;;;;9.10;1.80;;;;;;;2.32;83.80;101980.56;4950159;29;20570;-52
2021/01/17 07:51:12;;;;;;;14.15;2.55;;;;;;;2.31;83.90;102000.75;4954241;29;20043;-49
2021/01/17 07:53:42;;;;;;;13.13;2.05;;;;;;;2.30;84.34;101993.66;4953538;29;20043;-50
2021/01/17 07:56:12;;;;;;;7.68;2.28;;;;;;;2.32;83.99;102002.41;4937475;28;20071;-51
2021/01/17 07:58:44;;;;;;;11.00;2.65;;;;;;;2.29;83.98;102003.75;4953759;29;20106;-51
2021/01/17 08:01:33;;;;;;;14.15;3.28;;;;;;;2.29;84.53;102003.75;4976937;28;20106;-49
2021/01/17 08:04:16;;;;;;;7.38;2.33;;;;;;;2.31;84.22;102017.16;4955940;28;20041;-53
2021/01/17 08:06:45;;;;;;;10.77;2.35;;;;;;;2.33;84.34;102026.75;4973132;28;20093;-55
2021/01/17 08:09:13;;;;;;;5.95;2.28;;;;;;;2.35;83.93;102026.50;4973905;28;20047;-49
2021/01/17 08:11:55;;;;;;;12.40;2.95;;;;;;;2.35;84.22;102026.50;4993623;28;20722;-54
2021/01/17 08:14:30;;;;;;;15.47;2.73;;;;;;;2.38;84.13;102034.19;4975273;28;20070;-50
2021/01/17 08:17:02;;;;;;;13.00;2.95;;;;;;;2.40;84.43;102042.94;4972546;28;20455;-52
2021/01/17 08:19:37;;;;;;;17.60;2.33;;;;;;;2.43;84.59;102026.03;4972637;28;20047;-53
2021/01/17 08:22:19;;;;;;;11.68;2.67;;;;;;;2.44;84.33;102033.13;4973958;28;20081;-56
2021/01/17 08:24:48;;;;;;;8.57;3.00;;;;;;;2.49;84.17;102029.63;4973235;28;20039;-53
2021/01/17 08:27:37;;;;;;;16.10;2.38;;;;;;;2.52;84.50;102040.00;4956111;28;20102;-50
2021/01/17 08:30:17;;;;;;;9.43;2.17;;;;;;;2.53;84.52;102039.78;4973912;28;20556;-51
2021/01/17 08:32:49;;;;;;;13.48;2.78;;;;;;;2.57;84.28;102048.28;4971580;28;20050;-52
2021/01/17 08:35:18;;;;;;;16.90;2.10;;;;;;;2.59;84.57;102049.69;4972177;28;20444;-50
2021/01/17 08:37:50;;;;;;;14.85;2.00;;;;;;;2.59;84.57;102041.47;4972803;28;20109;-50
2021/01/17 08:40:29;;;;;;;13.65;3.40;;;;;;;2.62;84.67;102043.66;4973282;28;20055;-48
2021/01/17 08:43:07;;;;;;;11.90;2.47;;;;;;;2.66;84.28;102053.00;4971317;28;20054;-54
2021/01/17 08:45:38;;;;;;;18.23;3.05;;;;;;;2.69;84.42;102057.13;4973316;28;20102;-54
2021/01/17 08:48:17;;;;;;;13.57;2.40;;;;;;;2.71;84.68;102055.78;4972487;28;20058;-55
2021/01/17 08:50:45;;;;;;;6.25;2.03;;;;;;;2.77;84.52;102068.41;4967482;28;20051;-49
2021/01/17 08:53:13;;;;;;;9.85;2.53;;;;;;;2.79;84.48;102071.72;4968735;28;20461;-55
2021/01/17 08:56:07;;;;;;;10.65;1.95;;;;;;;2.81;84.20;102075.00;4954732;28;20102;-55
2021/01/17 08:58:35;;;;;;;21.58;4.03;;;;;;;2.84;84.50;102079.94;4969144;28;20054;-53
2021/01/17 09:01:04;;;;;;;9.57;2.10;;;;;;;2.87;84.21;102079.44;4971008;28;20058;-51
2021/01/17 09:03:42;;;;;;;12.13;3.08;;;;;;;2.91;84.50;102077.00;4969793;28;20093;-53
2021/01/17 09:06:13;;;;;;;9.48;2.28;;;;;;;2.93;84.19;102075.66;4969961;28;20057;-53
2021/01/17 09:08:57;;;;;;;7.07;1.45;;;;;;;2.95;84.41;102070.75;4972311;28;20070;-51
2021/01/17 09:11:37;;;;;;;7.55;2.28;;;;;;;3.00;84.06;102081.72;4980131;28;20141;-53
2021/01/17 09:14:07;;;;;;;12.98;2.58;;;;;;;3.02;84.32;102062.28;4968974;28;20098;-51
2021/01/17 09:16:37;;;;;;;12.68;2.50;;;;;;;3.05;83.99;102067.25;4971280;28;20134;-52
2021/01/17 09:19:07;;;;;;;14.27;2.53;;;;;;;3.06;84.17;102072.47;4970746;28;20125;-50
2021/01/17 09:21:34;;;;;;;7.53;1.88;;;;;;;3.07;84.17;102071.38;4970491;28;20374;-55
2021/01/17 09:24:06;;;;;;;21.33;2.83;;;;;;;3.11;84.17;102076.31;4970743;28;20098;-53
2021/01/17 09:26:33;;;;;;;16.30;2.80;;;;;;;3.14;84.31;102081.28;4970742;28;20046;-51
2021/01/17 09:28:59;;;;;;;24.10;3.33;;;;;;;3.15;84.14;102077.47;4953526;28;20807;-54
2021/01/17 09:31:29;;;;;;;11.82;2.53;;;;;;;3.16;84.14;102079.09;4970266;28;20047;-53
2021/01/17 09:33:56;;;;;;;7.80;2.42;;;;;;;3.17;84.05;102080.75;4966846;28;20042;-53
2021/01/17 09:36:25;;;;;;;16.05;2.55;;;;;;;3.19;84.19;102081.31;4969326;28;20588;-55
2021/01/17 09:38:51;;;;;;;22.08;3.13;;;;;;;3.19;84.32;102081.31;4969713;28;20478;-55
2021/01/17 09:41:25;;;;;;;14.70;2.78;;;;;;;3.22;83.82;102081.59;4970219;28;20476;-55
2021/01/17 09:43:53;;;;;;;11.38;2.50;;;;;;;3.25;83.87;102088.47;4969794;28;20825;-54
2021/01/17 09:46:24;;;;;;;7.68;2.38;;;;;;;3.29;83.99;102095.03;4970625;28;20413;-51
2021/01/17 09:48:58;;;;;;;9.98;2.58;;;;;;;3.32;83.85;102089.03;4969557;28;20039;-55
2021/01/17 09:51:28;;;;;;;18.45;4.38;;;;;;;3.35;84.13;102094.81;4952869;28;20066;-49
2021/01/17 09:53:59;;;;;;;18.50;2.88;;;;;;;3.40;83.83;102080.34;4969104;28;20047;-52
2021/01/17 09:56:25;;;;;;;8.70;1.83;;;;;;;3.42;83.63;102084.47;4970408;28;20046;-53
2021/01/17 09:58:53;;;;;;;17.23;2.55;;;;;;;3.45;83.80;102077.63;4968256;28;20078;-52
2021/01/17 10:01:20;;;;;;;26.20;4.13;;;;;;;3.50;83.75;102080.38;4964254;28;20051;-51
2021/01/17 10:03:48;;;;;;;11.80;4.03;;;;;;;3.53;84.05;102082.59;4956620;28;20051;-53
2021/01/17 10:06:16;;;;;;;17.23;2.17;;;;;;;3.55;83.68;102077.69;4951009;29;20090;-48
2021/01/17 10:08:43;;;;;;;21.15;3.78;;;;;;;3.58;83.93;102085.38;4949554;29;20043;-49
2021/01/17 10:11:10;;;;;;;8.35;2.72;;;;;;;3.60;83.94;102080.47;4962810;28;20054;-52
2021/01/17 10:13:45;;;;;;;9.18;1.88;;;;;;;3.62;83.70;102090.06;4950232;29;20119;-54
2021/01/17 10:16:12;;;;;;;11.63;2.00;;;;;;;3.63;83.47;102085.38;4950545;28;20039;-52
2021/01/17 10:18:38;;;;;;;9.30;2.53;;;;;;;3.63;83.72;102080.75;4950289;29;20386;-53
2021/01/17 10:21:04;;;;;;;14.82;2.50;;;;;;;3.65;83.53;102094.97;4953268;28;20053;-53
2021/01/17 10:23:32;;;;;;;14.52;3.60;;;;;;;3.68;83.49;102088.97;4954597;28;20035;-48
2021/01/17 10:25:58;;;;;;;7.65;2.20;;;;;;;3.69;83.34;102089.81;4954345;29;20047;-51
2021/01/17 10:28:26;;;;;;;6.00;1.98;;;;;;;3.71;83.22;102095.03;4954238;29;20043;-50
2021/01/17 10:30:59;;;;;;;16.88;2.70;;;;;;;3.70;83.44;102102.41;4954832;29;20043;-52
2021/01/17 10:33:28;;;;;;;;;;;;;;;3.67;83.00;102102.94;4953254;28;20078;-52
2021/01/17 10:35:55;;;;;;;13.65;2.45;;;;;;;3.69;83.09;102107.06;4954605;29;20029;-48
2021/01/17 10:38:21;;;;;;;16.40;3.60;;;;;;;3.70;83.25;102102.41;4953612;29;20482;-51
2021/01/17 10:40:48;;;;;;;13.57;3.85;;;;;;;3.74;83.06;102106.25;4953484;29;20098;-53
2021/01/17 10:43:32;;;;;;;12.10;3.10;;;;;;;3.79;83.03;102116.41;4954054;29;20047;-52
2021/01/17 10:46:15;;;;;;;8.77;2.58;;;;;;;3.83;82.86;102112.06;4953870;29;20079;-52
2021/01/17 10:48:56;;;;;;;12.48;3.50;;;;;;;3.86;83.28;102119.75;4953645;29;20054;-53
2021/01/17 10:51:35;;;;;;;15.00;2.67;;;;;;;3.90;83.13;102124.41;4958963;28;20885;-49
2021/01/17 10:54:04;;;;;;;9.50;3.10;;;;;;;3.95;83.07;102120.88;4955823;28;20046;-55
2021/01/17 10:56:32;;;;;;;16.35;2.47;;;;;;;3.96;82.95;102128.00;4953642;28;20158;-51
2021/01/17 10:59:00;;;;;;;11.57;2.53;;;;;;;3.97;82.99;102125.00;4955928;28;20106;-50
2021/01/17 11:01:33;;;;;;;11.00;2.38;;;;;;;3.99;83.08;102117.34;4972562;28;20039;-53
2021/01/17 11:04:00;;;;;;;17.38;2.95;;;;;;;4.05;82.62;102119.00;4971064;28;20043;-51
2021/01/17 11:06:29;;;;;;;14.88;3.83;;;;;;;4.09;82.51;102122.88;4953063;28;20053;-53
2021/01/17 11:09:00;;;;;;;17.05;3.05;;;;;;;4.14;82.39;102120.13;4970818;28;20788;-50
2021/01/17 11:11:31;;;;;;;20.10;3.33;;;;;;;4.19;82.48;102120.16;4973876;28;20066;-51
2021/01/17 11:14:03;;;;;;;19.55;3.53;;;;;;;4.21;82.45;102120.69;4972308;28;20090;-48
2021/01/17 11:16:35;;;;;;;16.50;3.40;;;;;;;4.23;82.30;102129.50;4972155;28;20089;-50
2021/01/17 11:19:03;;;;;;;16.40;3.97;;;;;;;4.25;82.60;102121.81;4954568;28;20043;-49
2021/01/17 11:21:33;;;;;;;13.85;4.03;;;;;;;4.28;82.56;102126.78;4955905;28;20382;-49
2021/01/17 11:24:00;;;;;;;12.18;4.13;;;;;;;4.28;82.25;102121.28;4978011;28;20082;-48
2021/01/17 11:26:26;;;;;;;14.10;3.80;;;;;;;4.29;82.31;102111.94;4972872;28;20071;-49
2021/01/17 11:28:57;;;;;;;11.15;2.78;;;;;;;4.31;82.20;102117.97;4971527;28;20157;-48
2021/01/17 11:31:24;;;;;;;14.63;4.05;;;;;;;4.36;82.09;102127.34;4970472;28;20051;-50
2021/01/17 11:33:51;;;;;;;18.02;3.63;;;;;;;4.39;82.32;102122.13;4971566;28;20046;-51
2021/01/17 11:36:20;;;;;;;17.33;3.60;;;;;;;4.39;81.86;102113.91;4972055;28;20074;-50
2021/01/17 11:38:56;;;;;;;18.90;5.78;;;;;;;4.41;81.67;102108.16;4971699;28;20812;-50
2021/01/17 11:41:33;;;;;;;22.23;7.13;;;;;;;4.43;82.41;102111.44;4966376;28;20129;-50
2021/01/17 11:44:11;;;;;;;26.65;8.18;;;;;;;4.46;82.04;102113.63;4955493;28;20070;-51